sensor_id;sensor_type;location;lat;lon;timestamp;temperature;humidity
20658;DHT22;10488;50.846;4.078;2023-02-28T00:00:23;-0.30;99.90
20658;DHT22;10488;50.846;4.078;2023-02-28T00:02:49;-0.30;99.90
20658;DHT22;10488;50.846;4.078;2023-02-28T00:05:18;-0.30;99.90
20658;DHT22;10488;50.846;4.078;2023-02-28T00:07:45;-0.10;99.90
20658;DHT22;10488;50.846;4.078;2023-02-28T00:10:15;0.00;99.90
20658;DHT22;10488;50.846;4.078;2023-02-28T00:12:40;0.00;99.90
20658;DHT22;10488;50.846;4.078;2023-02-28T00:15:10;0.00;99.90
20658;DHT22;10488;50.846;4.078;2023-02-28T00:17:36;-0.10;99.90
20658;DHT22;10488;50.846;4.078;2023-02-28T00:20:03;-0.10;99.90
20658;DHT22;10488;50.846;4.078;2023-02-28T00:22:32;-0.30;99.90
20658;DHT22;10488;50.846;4.078;2023-02-28T00:24:58;-0.40;99.90
20658;DHT22;10488;50.846;4.078;2023-02-28T00:27:24;-0.40;99.90
20658;DHT22;10488;50.846;4.078;2023-02-28T00:29:51;-0.30;99.90
20658;DHT22;10488;50.846;4.078;2023-02-28T00:32:18;-0.10;99.90
20658;DHT22;10488;50.846;4.078;2023-02-28T00:34:44;-0.20;99.90
20658;DHT22;10488;50.846;4.078;2023-02-28T00:37:10;-0.20;99.90
20658;DHT22;10488;50.846;4.078;2023-02-28T00:39:39;-0.30;99.90
20658;DHT22;10488;50.846;4.078;2023-02-28T00:42:06;-0.40;99.90
20658;DHT22;10488;50.846;4.078;2023-02-28T00:44:32;-0.50;99.90
20658;DHT22;10488;50.846;4.078;2023-02-28T00:46:58;-0.60;99.90
20658;DHT22;10488;50.846;4.078;2023-02-28T00:49:26;-0.60;99.90
20658;DHT22;10488;50.846;4.078;2023-02-28T00:51:52;-0.70;99.90
20658;DHT22;10488;50.846;4.078;2023-02-28T00:54:19;-0.70;99.90
20658;DHT22;10488;50.846;4.078;2023-02-28T00:56:44;-0.70;99.90
20658;DHT22;10488;50.846;4.078;2023-02-28T00:59:14;-0.60;99.90
20658;DHT22;10488;50.846;4.078;2023-02-28T01:01:46;-0.60;99.90
20658;DHT22;10488;50.846;4.078;2023-02-28T01:04:14;-0.60;99.90
20658;DHT22;10488;50.846;4.078;2023-02-28T01:06:41;-0.60;99.90
20658;DHT22;10488;50.846;4.078;2023-02-28T01:09:08;-0.80;99.90
20658;DHT22;10488;50.846;4.078;2023-02-28T01:11:35;-0.80;99.90
20658;DHT22;10488;50.846;4.078;2023-02-28T01:14:01;-0.80;99.90
20658;DHT22;10488;50.846;4.078;2023-02-28T01:16:27;-0.80;99.90
20658;DHT22;10488;50.846;4.078;2023-02-28T01:18:54;-0.90;99.90
20658;DHT22;10488;50.846;4.078;2023-02-28T01:21:21;-0.90;99.90
20658;DHT22;10488;50.846;4.078;2023-02-28T01:23:48;-0.90;99.90
20658;DHT22;10488;50.846;4.078;2023-02-28T01:26:16;-0.90;99.90
20658;DHT22;10488;50.846;4.078;2023-02-28T01:28:44;-0.90;99.90
20658;DHT22;10488;50.846;4.078;2023-02-28T01:31:11;-0.90;99.90
20658;DHT22;10488;50.846;4.078;2023-02-28T01:33:37;-0.80;99.90
20658;DHT22;10488;50.846;4.078;2023-02-28T01:36:09;-0.80;99.90
20658;DHT22;10488;50.846;4.078;2023-02-28T01:38:35;-0.70;99.90
20658;DHT22;10488;50.846;4.078;2023-02-28T01:41:02;-0.80;99.90
20658;DHT22;10488;50.846;4.078;2023-02-28T01:46:11;-0.70;99.90
20658;DHT22;10488;50.846;4.078;2023-02-28T01:48:47;-0.70;99.90
20658;DHT22;10488;50.846;4.078;2023-02-28T01:51:35;-0.70;99.90
20658;DHT22;10488;50.846;4.078;2023-02-28T01:54:09;-0.50;99.90
20658;DHT22;10488;50.846;4.078;2023-02-28T01:56:50;-0.60;99.90
20658;DHT22;10488;50.846;4.078;2023-02-28T01:59:33;-0.60;99.90
20658;DHT22;10488;50.846;4.078;2023-02-28T02:02:01;-0.70;99.90
20658;DHT22;10488;50.846;4.078;2023-02-28T02:04:36;-0.80;99.90
20658;DHT22;10488;50.846;4.078;2023-02-28T02:07:05;-0.80;99.90
20658;DHT22;10488;50.846;4.078;2023-02-28T02:09:30;-0.90;99.90
20658;DHT22;10488;50.846;4.078;2023-02-28T02:11:57;-0.90;99.90
20658;DHT22;10488;50.846;4.078;2023-02-28T02:17:12;-0.90;99.90
20658;DHT22;10488;50.846;4.078;2023-02-28T02:25:27;-0.80;99.90
20658;DHT22;10488;50.846;4.078;2023-02-28T02:36:27;-0.90;99.90
20658;DHT22;10488;50.846;4.078;2023-02-28T02:39:05;-0.90;99.90
20658;DHT22;10488;50.846;4.078;2023-02-28T02:41:39;-1.00;99.90
20658;DHT22;10488;50.846;4.078;2023-02-28T02:44:27;-1.10;99.90
20658;DHT22;10488;50.846;4.078;2023-02-28T02:46:59;-1.20;99.90
20658;DHT22;10488;50.846;4.078;2023-02-28T02:49:30;-1.20;99.90
20658;DHT22;10488;50.846;4.078;2023-02-28T02:52:02;-1.30;99.90
20658;DHT22;10488;50.846;4.078;2023-02-28T02:54:34;-1.20;99.90
20658;DHT22;10488;50.846;4.078;2023-02-28T02:57:05;-1.20;99.90
20658;DHT22;10488;50.846;4.078;2023-02-28T02:59:32;-1.20;99.90
20658;DHT22;10488;50.846;4.078;2023-02-28T03:02:03;-1.30;99.90
20658;DHT22;10488;50.846;4.078;2023-02-28T03:04:35;-1.30;99.90
20658;DHT22;10488;50.846;4.078;2023-02-28T03:07:04;-1.30;99.90
20658;DHT22;10488;50.846;4.078;2023-02-28T03:09:33;-1.30;99.90
20658;DHT22;10488;50.846;4.078;2023-02-28T03:12:01;-1.40;99.90
20658;DHT22;10488;50.846;4.078;2023-02-28T03:30:47;-1.50;99.90
20658;DHT22;10488;50.846;4.078;2023-02-28T03:33:23;-1.50;99.90
20658;DHT22;10488;50.846;4.078;2023-02-28T03:36:04;-1.60;99.90
20658;DHT22;10488;50.846;4.078;2023-02-28T03:38:38;-1.60;99.90
20658;DHT22;10488;50.846;4.078;2023-02-28T03:41:31;-1.60;99.90
20658;DHT22;10488;50.846;4.078;2023-02-28T03:44:11;-1.60;99.90
20658;DHT22;10488;50.846;4.078;2023-02-28T03:46:45;-1.60;99.90
20658;DHT22;10488;50.846;4.078;2023-02-28T03:49:20;-1.70;99.90
20658;DHT22;10488;50.846;4.078;2023-02-28T03:51:49;-1.70;99.90
20658;DHT22;10488;50.846;4.078;2023-02-28T03:54:22;-1.80;99.90
20658;DHT22;10488;50.846;4.078;2023-02-28T04:00:31;-1.70;99.90
20658;DHT22;10488;50.846;4.078;2023-02-28T04:02:39;-1.70;99.90
20658;DHT22;10488;50.846;4.078;2023-02-28T04:05:06;-1.70;99.90
20658;DHT22;10488;50.846;4.078;2023-02-28T04:07:33;-1.70;99.90
20658;DHT22;10488;50.846;4.078;2023-02-28T04:10:01;-1.80;99.90
20658;DHT22;10488;50.846;4.078;2023-02-28T04:12:27;-1.70;99.90
20658;DHT22;10488;50.846;4.078;2023-02-28T04:14:54;-1.60;99.90
20658;DHT22;10488;50.846;4.078;2023-02-28T04:17:21;-1.50;99.90
20658;DHT22;10488;50.846;4.078;2023-02-28T04:19:46;-1.40;99.90
20658;DHT22;10488;50.846;4.078;2023-02-28T04:22:13;-1.50;99.90
20658;DHT22;10488;50.846;4.078;2023-02-28T04:24:41;-1.50;99.90
20658;DHT22;10488;50.846;4.078;2023-02-28T04:27:08;-1.60;99.90
20658;DHT22;10488;50.846;4.078;2023-02-28T04:29:34;-1.60;99.90
20658;DHT22;10488;50.846;4.078;2023-02-28T04:32:01;-1.60;99.90
20658;DHT22;10488;50.846;4.078;2023-02-28T04:34:30;-1.60;99.90
20658;DHT22;10488;50.846;4.078;2023-02-28T04:36:56;-1.60;99.90
20658;DHT22;10488;50.846;4.078;2023-02-28T04:39:24;-1.60;99.90
20658;DHT22;10488;50.846;4.078;2023-02-28T04:41:51;-1.60;99.90
20658;DHT22;10488;50.846;4.078;2023-02-28T04:44:17;-1.50;99.90
20658;DHT22;10488;50.846;4.078;2023-02-28T04:46:43;-1.60;99.90
20658;DHT22;10488;50.846;4.078;2023-02-28T04:49:12;-1.60;99.90
20658;DHT22;10488;50.846;4.078;2023-02-28T04:51:38;-1.60;99.90
20658;DHT22;10488;50.846;4.078;2023-02-28T04:54:05;-1.70;99.90
20658;DHT22;10488;50.846;4.078;2023-02-28T04:56:32;-1.70;99.90
20658;DHT22;10488;50.846;4.078;2023-02-28T04:58:57;-1.60;99.90
20658;DHT22;10488;50.846;4.078;2023-02-28T05:01:29;-1.40;99.90
20658;DHT22;10488;50.846;4.078;2023-02-28T05:03:57;-1.30;99.90
20658;DHT22;10488;50.846;4.078;2023-02-28T05:06:26;-1.30;99.90
20658;DHT22;10488;50.846;4.078;2023-02-28T05:08:53;-1.20;99.90
20658;DHT22;10488;50.846;4.078;2023-02-28T05:11:22;-1.00;99.90
20658;DHT22;10488;50.846;4.078;2023-02-28T05:13:49;-0.90;99.90
20658;DHT22;10488;50.846;4.078;2023-02-28T05:16:16;-0.70;99.90
20658;DHT22;10488;50.846;4.078;2023-02-28T05:18:42;-0.60;99.90
20658;DHT22;10488;50.846;4.078;2023-02-28T05:21:38;-0.40;99.90
20658;DHT22;10488;50.846;4.078;2023-02-28T05:24:06;-0.30;99.90
20658;DHT22;10488;50.846;4.078;2023-02-28T05:26:37;-0.20;99.90
20658;DHT22;10488;50.846;4.078;2023-02-28T05:29:04;-0.10;99.90
20658;DHT22;10488;50.846;4.078;2023-02-28T05:31:30;0.10;99.90
20658;DHT22;10488;50.846;4.078;2023-02-28T05:33:56;0.10;99.90
20658;DHT22;10488;50.846;4.078;2023-02-28T05:36:23;0.30;99.90
20658;DHT22;10488;50.846;4.078;2023-02-28T05:38:50;0.40;99.90
20658;DHT22;10488;50.846;4.078;2023-02-28T05:41:18;0.60;99.90
20658;DHT22;10488;50.846;4.078;2023-02-28T05:43:44;0.80;99.90
20658;DHT22;10488;50.846;4.078;2023-02-28T05:46:12;0.90;99.90
20658;DHT22;10488;50.846;4.078;2023-02-28T05:48:40;1.10;99.90
20658;DHT22;10488;50.846;4.078;2023-02-28T05:51:07;1.10;99.90
20658;DHT22;10488;50.846;4.078;2023-02-28T05:53:35;1.20;99.90
20658;DHT22;10488;50.846;4.078;2023-02-28T05:56:02;1.30;99.90
20658;DHT22;10488;50.846;4.078;2023-02-28T05:58:28;1.40;99.90
20658;DHT22;10488;50.846;4.078;2023-02-28T06:00:57;1.50;99.90
20658;DHT22;10488;50.846;4.078;2023-02-28T06:03:24;1.60;99.90
20658;DHT22;10488;50.846;4.078;2023-02-28T06:05:52;1.60;99.90
20658;DHT22;10488;50.846;4.078;2023-02-28T06:08:18;1.60;99.90
20658;DHT22;10488;50.846;4.078;2023-02-28T06:10:44;1.70;99.90
20658;DHT22;10488;50.846;4.078;2023-02-28T06:13:10;1.60;99.90
20658;DHT22;10488;50.846;4.078;2023-02-28T06:15:39;1.60;99.90
20658;DHT22;10488;50.846;4.078;2023-02-28T06:18:05;1.40;99.90
20658;DHT22;10488;50.846;4.078;2023-02-28T06:20:30;1.50;99.90
20658;DHT22;10488;50.846;4.078;2023-02-28T06:22:57;1.50;99.90
20658;DHT22;10488;50.846;4.078;2023-02-28T06:25:27;1.50;99.90
20658;DHT22;10488;50.846;4.078;2023-02-28T06:27:54;1.50;99.90
20658;DHT22;10488;50.846;4.078;2023-02-28T06:30:20;1.70;99.90
20658;DHT22;10488;50.846;4.078;2023-02-28T06:32:50;1.80;99.90
20658;DHT22;10488;50.846;4.078;2023-02-28T06:35:18;1.80;99.90
20658;DHT22;10488;50.846;4.078;2023-02-28T06:37:44;1.80;99.90
20658;DHT22;10488;50.846;4.078;2023-02-28T06:40:10;1.70;99.90
20658;DHT22;10488;50.846;4.078;2023-02-28T06:42:36;1.70;99.90
20658;DHT22;10488;50.846;4.078;2023-02-28T06:45:02;1.70;99.90
20658;DHT22;10488;50.846;4.078;2023-02-28T06:47:37;1.80;99.90
20658;DHT22;10488;50.846;4.078;2023-02-28T06:50:04;1.80;99.90
20658;DHT22;10488;50.846;4.078;2023-02-28T06:52:30;2.10;99.90
20658;DHT22;10488;50.846;4.078;2023-02-28T06:54:56;1.90;99.90
20658;DHT22;10488;50.846;4.078;2023-02-28T06:57:33;1.80;99.90
20658;DHT22;10488;50.846;4.078;2023-02-28T07:00:09;1.90;99.90
20658;DHT22;10488;50.846;4.078;2023-02-28T07:02:36;1.90;99.90
20658;DHT22;10488;50.846;4.078;2023-02-28T07:05:03;2.20;99.90
20658;DHT22;10488;50.846;4.078;2023-02-28T07:07:29;2.20;99.90
20658;DHT22;10488;50.846;4.078;2023-02-28T07:09:55;2.20;99.90
20658;DHT22;10488;50.846;4.078;2023-02-28T07:12:21;2.20;99.90
20658;DHT22;10488;50.846;4.078;2023-02-28T07:14:48;2.30;99.90
20658;DHT22;10488;50.846;4.078;2023-02-28T07:17:14;2.40;99.90
20658;DHT22;10488;50.846;4.078;2023-02-28T07:19:39;2.40;99.90
20658;DHT22;10488;50.846;4.078;2023-02-28T07:22:06;2.50;99.90
20658;DHT22;10488;50.846;4.078;2023-02-28T07:24:32;2.40;99.90
20658;DHT22;10488;50.846;4.078;2023-02-28T07:26:58;2.50;99.90
20658;DHT22;10488;50.846;4.078;2023-02-28T07:29:25;2.50;99.90
20658;DHT22;10488;50.846;4.078;2023-02-28T07:31:51;2.60;99.90
20658;DHT22;10488;50.846;4.078;2023-02-28T07:34:19;2.80;99.90
20658;DHT22;10488;50.846;4.078;2023-02-28T07:36:44;2.70;99.90
20658;DHT22;10488;50.846;4.078;2023-02-28T07:39:10;2.70;99.90
20658;DHT22;10488;50.846;4.078;2023-02-28T07:41:36;3.00;99.90
20658;DHT22;10488;50.846;4.078;2023-02-28T07:44:11;3.10;99.90
20658;DHT22;10488;50.846;4.078;2023-02-28T07:46:37;3.30;99.90
20658;DHT22;10488;50.846;4.078;2023-02-28T07:49:03;3.70;99.90
20658;DHT22;10488;50.846;4.078;2023-02-28T07:51:30;4.40;99.90
20658;DHT22;10488;50.846;4.078;2023-02-28T07:53:56;4.70;99.90
20658;DHT22;10488;50.846;4.078;2023-02-28T07:56:21;4.70;99.90
20658;DHT22;10488;50.846;4.078;2023-02-28T07:58:47;4.70;99.90
20658;DHT22;10488;50.846;4.078;2023-02-28T08:01:13;4.80;99.90
20658;DHT22;10488;50.846;4.078;2023-02-28T08:03:40;5.00;99.90
20658;DHT22;10488;50.846;4.078;2023-02-28T08:06:08;4.80;99.90
20658;DHT22;10488;50.846;4.078;2023-02-28T08:08:39;5.20;99.90
20658;DHT22;10488;50.846;4.078;2023-02-28T08:11:05;5.10;99.90
20658;DHT22;10488;50.846;4.078;2023-02-28T08:13:31;5.40;99.90
20658;DHT22;10488;50.846;4.078;2023-02-28T08:15:57;5.10;99.90
20658;DHT22;10488;50.846;4.078;2023-02-28T08:18:23;5.50;99.90
20658;DHT22;10488;50.846;4.078;2023-02-28T08:20:49;5.30;99.90
20658;DHT22;10488;50.846;4.078;2023-02-28T08:23:15;5.00;99.90
20658;DHT22;10488;50.846;4.078;2023-02-28T08:25:41;5.10;99.90
20658;DHT22;10488;50.846;4.078;2023-02-28T08:28:06;4.90;99.90
20658;DHT22;10488;50.846;4.078;2023-02-28T08:30:33;5.00;99.90
20658;DHT22;10488;50.846;4.078;2023-02-28T08:32:58;4.70;99.90
20658;DHT22;10488;50.846;4.078;2023-02-28T08:35:24;4.50;99.90
20658;DHT22;10488;50.846;4.078;2023-02-28T08:37:50;4.50;99.90
20658;DHT22;10488;50.846;4.078;2023-02-28T08:40:16;4.60;99.90
20658;DHT22;10488;50.846;4.078;2023-02-28T08:42:47;4.60;99.90
20658;DHT22;10488;50.846;4.078;2023-02-28T08:45:14;4.70;99.90
20658;DHT22;10488;50.846;4.078;2023-02-28T08:47:40;4.60;99.90
20658;DHT22;10488;50.846;4.078;2023-02-28T08:50:07;4.50;99.90
20658;DHT22;10488;50.846;4.078;2023-02-28T08:52:33;4.60;99.90
20658;DHT22;10488;50.846;4.078;2023-02-28T08:54:59;4.60;99.90
20658;DHT22;10488;50.846;4.078;2023-02-28T08:57:25;4.70;99.90
20658;DHT22;10488;50.846;4.078;2023-02-28T08:59:53;4.40;99.90
20658;DHT22;10488;50.846;4.078;2023-02-28T09:02:19;4.50;99.90
20658;DHT22;10488;50.846;4.078;2023-02-28T09:04:45;4.70;99.90
20658;DHT22;10488;50.846;4.078;2023-02-28T09:07:11;5.10;99.90
20658;DHT22;10488;50.846;4.078;2023-02-28T09:09:37;5.10;99.90
20658;DHT22;10488;50.846;4.078;2023-02-28T09:12:03;4.90;99.90
20658;DHT22;10488;50.846;4.078;2023-02-28T09:14:30;4.60;99.90
20658;DHT22;10488;50.846;4.078;2023-02-28T09:16:56;5.00;99.90
20658;DHT22;10488;50.846;4.078;2023-02-28T09:19:21;5.40;99.90
20658;DHT22;10488;50.846;4.078;2023-02-28T09:21:47;5.50;99.90
20658;DHT22;10488;50.846;4.078;2023-02-28T09:24:13;5.60;99.90
20658;DHT22;10488;50.846;4.078;2023-02-28T09:26:40;5.50;99.90
20658;DHT22;10488;50.846;4.078;2023-02-28T09:29:06;5.60;99.90
20658;DHT22;10488;50.846;4.078;2023-02-28T09:31:32;5.70;99.90
20658;DHT22;10488;50.846;4.078;2023-02-28T09:33:58;5.80;99.90
20658;DHT22;10488;50.846;4.078;2023-02-28T09:36:26;5.70;99.90
20658;DHT22;10488;50.846;4.078;2023-02-28T09:38:52;5.50;99.90
20658;DHT22;10488;50.846;4.078;2023-02-28T09:41:27;5.30;99.90
20658;DHT22;10488;50.846;4.078;2023-02-28T09:44:03;5.10;99.90
20658;DHT22;10488;50.846;4.078;2023-02-28T09:46:44;5.10;99.90
20658;DHT22;10488;50.846;4.078;2023-02-28T09:49:15;5.00;99.90
20658;DHT22;10488;50.846;4.078;2023-02-28T09:54:20;5.00;99.90
20658;DHT22;10488;50.846;4.078;2023-02-28T10:04:58;4.90;99.90
20658;DHT22;10488;50.846;4.078;2023-02-28T10:13:12;4.60;99.90
20658;DHT22;10488;50.846;4.078;2023-02-28T10:15:40;4.80;99.90
20658;DHT22;10488;50.846;4.078;2023-02-28T10:18:12;5.00;99.90
20658;DHT22;10488;50.846;4.078;2023-02-28T10:20:40;5.00;99.90
20658;DHT22;10488;50.846;4.078;2023-02-28T10:23:26;4.80;99.90
20658;DHT22;10488;50.846;4.078;2023-02-28T10:26:14;5.00;99.90
20658;DHT22;10488;50.846;4.078;2023-02-28T10:28:44;5.10;99.90
20658;DHT22;10488;50.846;4.078;2023-02-28T10:31:19;5.20;99.90
20658;DHT22;10488;50.846;4.078;2023-02-28T10:33:45;5.40;99.90
20658;DHT22;10488;50.846;4.078;2023-02-28T10:36:16;5.40;99.90
20658;DHT22;10488;50.846;4.078;2023-02-28T10:38:43;5.50;99.90
20658;DHT22;10488;50.846;4.078;2023-02-28T10:41:17;5.50;99.90
20658;DHT22;10488;50.846;4.078;2023-02-28T10:43:51;5.50;99.90
20658;DHT22;10488;50.846;4.078;2023-02-28T10:46:19;5.50;99.90
20658;DHT22;10488;50.846;4.078;2023-02-28T10:49:17;5.60;99.90
20658;DHT22;10488;50.846;4.078;2023-02-28T10:51:45;5.60;99.90
20658;DHT22;10488;50.846;4.078;2023-02-28T10:54:32;5.70;99.90
20658;DHT22;10488;50.846;4.078;2023-02-28T10:57:21;5.40;99.90
20658;DHT22;10488;50.846;4.078;2023-02-28T10:59:52;5.30;99.90
20658;DHT22;10488;50.846;4.078;2023-02-28T11:02:38;5.30;99.90
20658;DHT22;10488;50.846;4.078;2023-02-28T11:05:29;5.60;99.90
20658;DHT22;10488;50.846;4.078;2023-02-28T11:08:14;5.50;99.90
20658;DHT22;10488;50.846;4.078;2023-02-28T11:10:46;5.40;99.90
20658;DHT22;10488;50.846;4.078;2023-02-28T11:13:20;5.50;99.90
20658;DHT22;10488;50.846;4.078;2023-02-28T11:15:54;5.50;99.90
20658;DHT22;10488;50.846;4.078;2023-02-28T11:18:27;5.40;99.90
20658;DHT22;10488;50.846;4.078;2023-02-28T11:20:57;5.40;99.90
20658;DHT22;10488;50.846;4.078;2023-02-28T11:23:29;5.30;99.90
20658;DHT22;10488;50.846;4.078;2023-02-28T11:25:59;5.30;99.90
20658;DHT22;10488;50.846;4.078;2023-02-28T11:28:33;5.50;99.90
20658;DHT22;10488;50.846;4.078;2023-02-28T11:33:54;5.40;99.90
20658;DHT22;10488;50.846;4.078;2023-02-28T11:38:48;5.30;99.90
20658;DHT22;10488;50.846;4.078;2023-02-28T11:41:24;5.40;99.90
20658;DHT22;10488;50.846;4.078;2023-02-28T11:46:44;5.30;99.90
20658;DHT22;10488;50.846;4.078;2023-02-28T11:51:48;5.60;99.90
20658;DHT22;10488;50.846;4.078;2023-02-28T11:54:28;5.60;99.90
20658;DHT22;10488;50.846;4.078;2023-02-28T11:57:00;5.70;99.90
20658;DHT22;10488;50.846;4.078;2023-02-28T12:02:29;5.70;99.90
20658;DHT22;10488;50.846;4.078;2023-02-28T12:05:34;5.60;99.90
20658;DHT22;10488;50.846;4.078;2023-02-28T12:11:16;5.50;99.90
20658;DHT22;10488;50.846;4.078;2023-02-28T12:19:45;5.50;99.90
20658;DHT22;10488;50.846;4.078;2023-02-28T12:28:14;6.00;99.90
20658;DHT22;10488;50.846;4.078;2023-02-28T12:31:01;5.80;99.90
20658;DHT22;10488;50.846;4.078;2023-02-28T12:33:38;5.90;99.90
20658;DHT22;10488;50.846;4.078;2023-02-28T12:36:10;5.80;99.90
20658;DHT22;10488;50.846;4.078;2023-02-28T12:39:08;5.80;99.90
20658;DHT22;10488;50.846;4.078;2023-02-28T12:41:59;5.70;99.90
20658;DHT22;10488;50.846;4.078;2023-02-28T12:44:32;5.50;99.90
20658;DHT22;10488;50.846;4.078;2023-02-28T12:47:02;5.60;99.90
20658;DHT22;10488;50.846;4.078;2023-02-28T12:49:34;5.60;99.90
20658;DHT22;10488;50.846;4.078;2023-02-28T12:52:03;5.50;99.90
20658;DHT22;10488;50.846;4.078;2023-02-28T12:55:00;5.90;99.90
20658;DHT22;10488;50.846;4.078;2023-02-28T12:57:44;6.00;99.90
20658;DHT22;10488;50.846;4.078;2023-02-28T13:00:18;6.20;99.90
20658;DHT22;10488;50.846;4.078;2023-02-28T13:05:46;6.30;99.90
20658;DHT22;10488;50.846;4.078;2023-02-28T13:11:39;6.50;99.90
20658;DHT22;10488;50.846;4.078;2023-02-28T13:14:27;6.60;99.90
20658;DHT22;10488;50.846;4.078;2023-02-28T13:19:57;6.60;99.90
20658;DHT22;10488;50.846;4.078;2023-02-28T13:22:42;6.50;99.90
20658;DHT22;10488;50.846;4.078;2023-02-28T13:28:12;6.30;99.90
20658;DHT22;10488;50.846;4.078;2023-02-28T13:33:31;6.50;99.90
20658;DHT22;10488;50.846;4.078;2023-02-28T13:44:12;6.20;99.90
20658;DHT22;10488;50.846;4.078;2023-02-28T13:51:54;6.20;99.90
20658;DHT22;10488;50.846;4.078;2023-02-28T14:06:16;6.60;99.90
20658;DHT22;10488;50.846;4.078;2023-02-28T14:08:55;6.50;99.90
20658;DHT22;10488;50.846;4.078;2023-02-28T14:11:34;6.50;99.90
20658;DHT22;10488;50.846;4.078;2023-02-28T14:14:01;6.60;99.90
20658;DHT22;10488;50.846;4.078;2023-02-28T14:19:14;6.70;99.90
20658;DHT22;10488;50.846;4.078;2023-02-28T14:33:48;6.40;99.90
20658;DHT22;10488;50.846;4.078;2023-02-28T14:36:25;6.30;99.90
20658;DHT22;10488;50.846;4.078;2023-02-28T14:39:14;6.50;99.90
20658;DHT22;10488;50.846;4.078;2023-02-28T14:41:41;6.20;99.90
20658;DHT22;10488;50.846;4.078;2023-02-28T14:44:21;6.00;99.90
20658;DHT22;10488;50.846;4.078;2023-02-28T14:47:01;6.00;99.90
20658;DHT22;10488;50.846;4.078;2023-02-28T14:49:37;5.90;99.90
20658;DHT22;10488;50.846;4.078;2023-02-28T14:52:24;5.90;99.90
20658;DHT22;10488;50.846;4.078;2023-02-28T14:55:03;6.00;99.90
20658;DHT22;10488;50.846;4.078;2023-02-28T14:57:38;6.00;99.90
20658;DHT22;10488;50.846;4.078;2023-02-28T15:00:33;5.90;99.90
20658;DHT22;10488;50.846;4.078;2023-02-28T15:03:11;5.80;99.90
20658;DHT22;10488;50.846;4.078;2023-02-28T15:05:55;5.80;99.90
20658;DHT22;10488;50.846;4.078;2023-02-28T15:08:21;5.90;99.90
20658;DHT22;10488;50.846;4.078;2023-02-28T15:11:00;6.20;99.90
20658;DHT22;10488;50.846;4.078;2023-02-28T15:16:11;6.10;99.90
20658;DHT22;10488;50.846;4.078;2023-02-28T15:18:46;6.30;99.90
20658;DHT22;10488;50.846;4.078;2023-02-28T15:21:20;6.30;99.90
20658;DHT22;10488;50.846;4.078;2023-02-28T15:23:56;5.80;99.90
20658;DHT22;10488;50.846;4.078;2023-02-28T15:26:26;5.70;99.90
20658;DHT22;10488;50.846;4.078;2023-02-28T15:28:59;5.60;99.90
20658;DHT22;10488;50.846;4.078;2023-02-28T15:31:34;5.60;99.90
20658;DHT22;10488;50.846;4.078;2023-02-28T15:34:06;5.60;99.90
20658;DHT22;10488;50.846;4.078;2023-02-28T15:36:33;5.80;99.90
20658;DHT22;10488;50.846;4.078;2023-02-28T15:39:23;6.10;99.90
20658;DHT22;10488;50.846;4.078;2023-02-28T15:41:50;5.90;99.90
20658;DHT22;10488;50.846;4.078;2023-02-28T15:44:30;6.00;99.90
20658;DHT22;10488;50.846;4.078;2023-02-28T15:47:05;5.90;99.90
20658;DHT22;10488;50.846;4.078;2023-02-28T15:49:46;5.90;99.90
20658;DHT22;10488;50.846;4.078;2023-02-28T15:52:15;6.00;99.90
20658;DHT22;10488;50.846;4.078;2023-02-28T15:54:41;6.00;99.90
20658;DHT22;10488;50.846;4.078;2023-02-28T15:57:15;6.00;99.90
20658;DHT22;10488;50.846;4.078;2023-02-28T15:59:55;6.10;99.90
20658;DHT22;10488;50.846;4.078;2023-02-28T16:07:37;6.00;99.90
20658;DHT22;10488;50.846;4.078;2023-02-28T16:10:05;5.90;99.90
20658;DHT22;10488;50.846;4.078;2023-02-28T16:12:33;5.90;99.90
20658;DHT22;10488;50.846;4.078;2023-02-28T16:15:01;5.80;99.90
20658;DHT22;10488;50.846;4.078;2023-02-28T16:17:31;5.80;99.90
20658;DHT22;10488;50.846;4.078;2023-02-28T16:19:57;5.80;99.90
20658;DHT22;10488;50.846;4.078;2023-02-28T16:22:23;5.70;99.90
20658;DHT22;10488;50.846;4.078;2023-02-28T16:24:49;5.50;99.90
20658;DHT22;10488;50.846;4.078;2023-02-28T16:27:21;5.50;99.90
20658;DHT22;10488;50.846;4.078;2023-02-28T16:29:50;5.40;99.90
20658;DHT22;10488;50.846;4.078;2023-02-28T16:32:16;5.40;99.90
20658;DHT22;10488;50.846;4.078;2023-02-28T16:34:43;5.50;99.90
20658;DHT22;10488;50.846;4.078;2023-02-28T16:37:15;5.50;99.90
20658;DHT22;10488;50.846;4.078;2023-02-28T16:39:42;5.50;99.90
20658;DHT22;10488;50.846;4.078;2023-02-28T16:42:28;5.40;99.90
20658;DHT22;10488;50.846;4.078;2023-02-28T16:44:55;5.30;99.90
20658;DHT22;10488;50.846;4.078;2023-02-28T16:47:21;5.30;99.90
20658;DHT22;10488;50.846;4.078;2023-02-28T16:49:47;5.50;99.90
20658;DHT22;10488;50.846;4.078;2023-02-28T16:52:13;5.40;99.90
20658;DHT22;10488;50.846;4.078;2023-02-28T16:54:40;5.20;99.90
20658;DHT22;10488;50.846;4.078;2023-02-28T16:57:20;5.00;99.90
20658;DHT22;10488;50.846;4.078;2023-02-28T16:59:47;4.90;99.90
20658;DHT22;10488;50.846;4.078;2023-02-28T17:02:15;4.90;99.90
20658;DHT22;10488;50.846;4.078;2023-02-28T17:04:41;4.90;99.90
20658;DHT22;10488;50.846;4.078;2023-02-28T17:07:15;4.60;99.90
20658;DHT22;10488;50.846;4.078;2023-02-28T17:09:42;4.60;99.90
20658;DHT22;10488;50.846;4.078;2023-02-28T17:12:08;4.50;99.90
20658;DHT22;10488;50.846;4.078;2023-02-28T17:14:34;4.50;99.90
20658;DHT22;10488;50.846;4.078;2023-02-28T17:17:01;4.50;99.90
20658;DHT22;10488;50.846;4.078;2023-02-28T17:19:27;4.60;99.90
20658;DHT22;10488;50.846;4.078;2023-02-28T17:21:53;4.40;99.90
20658;DHT22;10488;50.846;4.078;2023-02-28T17:24:19;4.30;99.90
20658;DHT22;10488;50.846;4.078;2023-02-28T17:26:44;4.10;99.90
20658;DHT22;10488;50.846;4.078;2023-02-28T17:29:21;4.20;99.90
20658;DHT22;10488;50.846;4.078;2023-02-28T17:31:47;4.10;99.90
20658;DHT22;10488;50.846;4.078;2023-02-28T17:34:13;4.00;99.90
20658;DHT22;10488;50.846;4.078;2023-02-28T17:36:44;4.00;99.90
20658;DHT22;10488;50.846;4.078;2023-02-28T17:39:11;4.00;99.90
20658;DHT22;10488;50.846;4.078;2023-02-28T17:41:42;3.90;99.90
20658;DHT22;10488;50.846;4.078;2023-02-28T17:44:08;3.80;99.90
20658;DHT22;10488;50.846;4.078;2023-02-28T17:46:34;3.80;99.90
20658;DHT22;10488;50.846;4.078;2023-02-28T17:49:00;3.60;99.90
20658;DHT22;10488;50.846;4.078;2023-02-28T17:51:26;3.50;99.90
20658;DHT22;10488;50.846;4.078;2023-02-28T17:53:51;3.50;99.90
20658;DHT22;10488;50.846;4.078;2023-02-28T17:56:23;3.50;99.90
20658;DHT22;10488;50.846;4.078;2023-02-28T17:58:50;3.50;99.90
20658;DHT22;10488;50.846;4.078;2023-02-28T18:01:17;3.40;99.90
20658;DHT22;10488;50.846;4.078;2023-02-28T18:03:42;3.30;99.90
20658;DHT22;10488;50.846;4.078;2023-02-28T18:06:18;3.20;99.90
20658;DHT22;10488;50.846;4.078;2023-02-28T18:08:45;3.10;99.90
20658;DHT22;10488;50.846;4.078;2023-02-28T18:11:11;3.10;99.90
20658;DHT22;10488;50.846;4.078;2023-02-28T18:13:48;3.00;99.90
20658;DHT22;10488;50.846;4.078;2023-02-28T18:16:14;2.90;99.90
20658;DHT22;10488;50.846;4.078;2023-02-28T18:18:41;2.80;99.90
20658;DHT22;10488;50.846;4.078;2023-02-28T18:21:08;2.70;99.90
20658;DHT22;10488;50.846;4.078;2023-02-28T18:23:35;2.60;99.90
20658;DHT22;10488;50.846;4.078;2023-02-28T18:26:01;2.50;99.90
20658;DHT22;10488;50.846;4.078;2023-02-28T18:28:27;2.50;99.90